Laramie Regional Airport Laramie US
ICAO: KLAR
IATA: LAR
Category: Medium
Scheduled Services: Yes

Elevation: 7284 ft
TransAlt. 18000 ft.

Airport Communications:
ASOS:135.475
DENVER CNTR:125.9
CASPER RDO:122.6
CTAF/UNICOM:123.05

KLAR Zoom In..

Runways:

(A) RW 03 length 8502 ft width 150 ft
---- / hdg 33

(B) RW 12 length 6300 ft width 100 ft
---- / hdg 122

(C) RW 21 length 8502 ft width 150 ft
---- / hdg 213

(D) RW 30 length 6300 ft width 100 ft
---- / hdg 302

Location; KLAR
Day. 22 / Time. 23.53 Zulu
* Altimeter: 30.04
* Temperature: -08° c. -17.6°f.
* Wind from: 270° Speed 12 kn.
Dewpoint: -14° c.
Visibility: 10 Statute Miles.
Clouds: Clear (automated report).

KLAR 222353Z AUTO 27012KT 10SM CLR M08/M14 A3004 RMK AO2 SLP262 T10831139 11061 21094 53008


Wind From 270°
Speed 12 kn.

YouTube Music Video
 
jpsmedia.com for Web Design  worldairports.se 2018   terms of use